Time;durP1;ratioP1;P1;durP2;ratioP2;P2;SDS_P1;SDS_P2;PMS_P1;PMS_P2;Temp;Humidity;BMP_temperature;BMP_pressure;BME280_temperature;BME280_humidity;BME280_pressure;Samples;Min_cycle;Max_cycle;Signal;HPM_P1;HPM_P2
2022/06/10 00:04:18;;;;;;;7.13;4.18;;;;;;;12.46;63.12;100472.97;10510689;28;20401;-64
2022/06/10 00:09:19;;;;;;;7.75;3.75;;;;;;;12.48;63.38;100467.63;10506047;28;20147;-64
2022/06/10 00:14:21;;;;;;;7.53;3.67;;;;;;;12.39;63.00;100469.06;10507934;28;20615;-65
2022/06/10 00:19:23;;;;;;;9.82;3.78;;;;;;;12.32;63.17;100475.56;10509684;28;20084;-65
2022/06/10 00:24:25;;;;;;;5.18;3.55;;;;;;;12.26;62.98;100486.38;10510693;28;20048;-64
2022/06/10 00:29:26;;;;;;;8.68;4.30;;;;;;;12.14;63.31;100490.56;10506084;28;20058;-64
2022/06/10 00:34:28;;;;;;;6.45;3.85;;;;;;;12.11;63.38;100490.72;10509864;28;20048;-63
2022/06/10 00:39:30;;;;;;;8.68;3.65;;;;;;;12.06;63.19;100497.19;10500130;28;20454;-65
2022/06/10 00:44:36;;;;;;;6.88;4.10;;;;;;;11.96;63.40;100499.50;10508427;28;20087;-64
2022/06/10 00:49:39;;;;;;;7.10;4.07;;;;;;;11.88;63.36;100498.22;10502642;28;20056;-64
2022/06/10 00:54:45;;;;;;;5.18;3.90;;;;;;;11.73;63.53;100486.81;10506707;28;20139;-64
2022/06/10 00:59:54;;;;;;;8.93;4.13;;;;;;;11.69;63.36;100498.41;10508155;28;20070;-64
2022/06/10 01:04:57;;;;;;;59.42;7.65;;;;;;;11.53;63.76;100496.69;10508033;28;20153;-64
2022/06/10 01:10:01;;;;;;;7.93;4.25;;;;;;;11.34;64.44;100498.63;10506341;28;20044;-65
2022/06/10 01:15:15;;;;;;;4.80;4.05;;;;;;;11.35;65.01;100495.06;10509297;28;20068;-64
2022/06/10 01:20:51;;;;;;;8.60;4.03;;;;;;;11.32;64.97;100490.84;10507889;28;20092;-63
2022/06/10 01:25:59;;;;;;;90.93;6.22;;;;;;;11.28;64.69;100486.69;10507072;28;20044;-65
2022/06/10 01:31:03;;;;;;;13.90;4.80;;;;;;;11.09;65.24;100484.22;10509100;28;20052;-64
2022/06/10 01:36:24;;;;;;;12.30;5.03;;;;;;;11.19;65.68;100492.44;10505335;28;20040;-65
2022/06/10 01:41:29;;;;;;;;;;;;;;;11.01;66.21;100502.06;10506954;28;20039;-63
2022/06/10 01:46:37;;;;;;;286.55;11.27;;;;;;;11.30;65.13;100500.56;10504077;28;19930;-65
2022/06/10 01:51:47;;;;;;;10.77;5.05;;;;;;;11.35;65.41;100495.94;10502929;28;20134;-64
2022/06/10 01:56:52;;;;;;;49.00;6.75;;;;;;;11.46;64.85;100496.19;10499993;28;20502;-64
2022/06/10 02:02:05;;;;;;;13.43;4.30;;;;;;;11.40;65.46;100496.50;10508843;28;20056;-65
2022/06/10 02:07:10;;;;;;;332.45;16.98;;;;;;;11.41;65.06;100494.75;10512610;28;20157;-63
2022/06/10 02:12:28;;;;;;;29.40;5.32;;;;;;;11.25;65.36;100499.97;10515727;28;20056;-64
2022/06/10 02:17:37;;;;;;;13.10;4.65;;;;;;;11.35;65.45;100508.16;10514639;28;20052;-63
2022/06/10 02:22:45;;;;;;;13.80;6.15;;;;;;;11.45;64.89;100511.97;10515763;28;20664;-64
2022/06/10 02:27:51;;;;;;;9.85;4.88;;;;;;;11.51;64.76;100509.88;10512763;28;20075;-64
2022/06/10 02:32:56;;;;;;;17.40;5.32;;;;;;;11.50;64.86;100516.03;10515901;28;20145;-64
2022/06/10 02:38:06;;;;;;;30.45;5.20;;;;;;;11.54;65.01;100525.41;10513312;28;20127;-64
2022/06/10 02:43:17;;;;;;;20.48;4.80;;;;;;;11.42;65.14;100520.84;10513003;28;20495;-64
2022/06/10 02:48:28;;;;;;;27.23;4.90;;;;;;;11.32;65.43;100522.25;10514784;28;20506;-64
2022/06/10 02:53:30;;;;;;;50.63;5.28;;;;;;;11.35;65.21;100522.13;10519706;28;20426;-64
2022/06/10 03:04:13;;;;;;;22.80;4.80;;;;;;;11.29;65.18;100533.75;10514625;28;20131;-65
2022/06/10 03:09:17;;;;;;;29.02;5.13;;;;;;;11.34;64.97;100538.75;10515332;28;20044;-64
2022/06/10 03:15:01;;;;;;;9.18;4.50;;;;;;;11.24;65.07;100546.25;10513661;28;20126;-64
2022/06/10 03:20:27;;;;;;;16.42;4.90;;;;;;;11.21;65.04;100550.81;10510243;28;20144;-65
2022/06/10 03:25:37;;;;;;;21.98;5.00;;;;;;;11.26;64.96;100547.00;10515319;28;20126;-64
2022/06/10 03:30:51;;;;;;;13.48;4.78;;;;;;;11.20;65.17;100551.72;10513147;28;20053;-64
2022/06/10 03:36:16;;;;;;;25.48;5.63;;;;;;;11.17;65.19;100557.13;10513934;28;20134;-64
2022/06/10 03:41:22;;;;;;;26.88;6.07;;;;;;;11.19;65.18;100558.72;10513956;28;20072;-63
2022/06/10 03:46:27;;;;;;;49.58;5.97;;;;;;;11.30;64.77;100566.03;10512723;28;20428;-65
2022/06/10 03:51:31;;;;;;;74.63;6.10;;;;;;;11.32;64.51;100565.03;10513216;28;20059;-64
2022/06/10 03:56:35;;;;;;;59.20;7.30;;;;;;;11.27;64.74;100566.19;10512750;28;20134;-64
2022/06/10 04:01:37;;;;;;;522.92;18.10;;;;;;;11.47;64.32;100576.47;10512188;28;20454;-65
2022/06/10 04:06:39;;;;;;;54.55;7.28;;;;;;;11.41;64.71;100583.78;10502017;28;20047;-64
2022/06/10 04:11:59;;;;;;;157.82;8.88;;;;;;;11.41;64.23;100589.03;10507650;28;20405;-64
2022/06/10 04:17:01;;;;;;;187.30;9.63;;;;;;;11.38;64.43;100583.97;10513081;28;20608;-63
2022/06/10 04:22:03;;;;;;;161.88;8.02;;;;;;;11.41;64.61;100589.88;10511992;28;20040;-64
2022/06/10 04:27:05;;;;;;;86.97;8.82;;;;;;;11.54;64.53;100595.31;10511671;28;20443;-63
2022/06/10 04:32:08;;;;;;;11.68;5.10;;;;;;;11.71;64.30;100600.50;10512114;28;20490;-64
2022/06/10 04:37:10;;;;;;;42.90;5.93;;;;;;;11.94;63.58;100607.97;10511129;28;20139;-63
2022/06/10 04:42:12;;;;;;;18.65;4.88;;;;;;;11.98;63.11;100604.25;10512642;28;20496;-63
2022/06/10 04:47:14;;;;;;;16.33;4.53;;;;;;;12.03;63.00;100600.44;10511422;28;20286;-63
2022/06/10 04:52:15;;;;;;;8.85;4.93;;;;;;;12.16;62.48;100605.84;10511841;28;20214;-64
2022/06/10 04:57:17;;;;;;;6.97;4.22;;;;;;;12.30;62.64;100608.59;10509959;28;20131;-64
2022/06/10 05:02:19;;;;;;;317.38;12.38;;;;;;;12.26;62.30;100614.91;10511621;28;20044;-64
2022/06/10 05:07:20;;;;;;;96.18;6.30;;;;;;;12.22;62.17;100610.75;10510109;28;20059;-65
2022/06/10 05:12:22;;;;;;;23.95;5.65;;;;;;;12.24;62.65;100622.00;10510512;28;20131;-64
2022/06/10 05:17:24;;;;;;;90.78;7.60;;;;;;;12.34;62.39;100617.97;10510082;28;20051;-64
2022/06/10 05:22:26;;;;;;;233.80;10.30;;;;;;;12.34;62.13;100615.34;10510573;28;20052;-64
2022/06/10 05:27:27;;;;;;;6.28;4.40;;;;;;;12.40;62.34;100624.63;10509536;28;20044;-65
2022/06/10 05:32:29;;;;;;;95.82;6.90;;;;;;;12.38;61.88;100629.97;10511842;28;20052;-64
2022/06/10 05:37:31;;;;;;;220.85;10.68;;;;;;;12.41;61.95;100627.19;10509606;28;20130;-64
2022/06/10 05:42:32;;;;;;;71.68;6.95;;;;;;;12.55;61.75;100635.13;10509971;28;20484;-64
2022/06/10 05:47:38;;;;;;;29.00;5.18;;;;;;;12.83;61.40;100635.25;10509041;28;20474;-65
2022/06/10 05:52:40;;;;;;;81.88;6.55;;;;;;;13.28;60.49;100621.19;10508151;28;20134;-64
2022/06/10 05:57:42;;;;;;;25.17;6.00;;;;;;;13.74;59.26;100622.72;10509123;28;20134;-64
2022/06/10 06:02:45;;;;;;;87.90;8.90;;;;;;;13.90;58.83;100635.78;10510309;28;20048;-64
2022/06/10 06:07:48;;;;;;;140.27;10.75;;;;;;;13.82;58.94;100630.13;10508586;28;20118;-64
2022/06/10 06:12:50;;;;;;;154.15;9.98;;;;;;;14.07;58.63;100627.66;10508639;28;20079;-65
2022/06/10 06:17:52;;;;;;;32.38;6.63;;;;;;;14.49;57.86;100630.22;10507796;28;20044;-65
2022/06/10 06:22:54;;;;;;;89.88;9.27;;;;;;;14.94;56.90;100630.78;10508436;28;20109;-65
2022/06/10 06:27:56;;;;;;;24.75;6.72;;;;;;;15.06;56.21;100636.06;10506005;28;20129;-68
2022/06/10 06:33:01;;;;;;;66.85;9.43;;;;;;;14.92;56.38;100638.78;10508976;28;20099;-67
2022/06/10 06:38:04;;;;;;;8.93;7.55;;;;;;;15.21;55.68;100635.03;10506473;28;20123;-68
2022/06/10 06:43:06;;;;;;;19.15;9.18;;;;;;;15.68;55.36;100641.50;10508888;28;20048;-67
2022/06/10 06:48:10;;;;;;;8.88;7.57;;;;;;;16.14;54.34;100637.31;10502987;28;20052;-68
2022/06/10 06:53:12;;;;;;;8.98;6.47;;;;;;;16.93;52.65;100637.66;10503891;28;20051;-67
2022/06/10 06:58:17;;;;;;;7.55;6.18;;;;;;;18.46;50.32;100629.94;10508150;28;20104;-67
2022/06/10 07:03:20;;;;;;;9.52;6.63;;;;;;;19.55;48.58;100619.88;10509264;28;20044;-67
2022/06/10 07:08:30;;;;;;;6.30;5.65;;;;;;;21.07;45.94;100622.91;10507110;28;20106;-68
2022/06/10 07:13:33;;;;;;;7.32;5.60;;;;;;;22.09;43.35;100618.59;10500416;28;20044;-68
2022/06/10 07:18:34;;;;;;;5.90;4.65;;;;;;;22.78;41.87;100624.16;10506700;28;20054;-68
2022/06/10 07:23:36;;;;;;;7.40;4.57;;;;;;;23.13;39.93;100610.75;10504378;28;20047;-68
2022/06/10 07:28:38;;;;;;;6.07;3.80;;;;;;;23.50;38.26;100614.06;10505021;28;20510;-67
2022/06/10 07:33:40;;;;;;;6.90;3.58;;;;;;;23.49;38.31;100612.41;10505759;28;20048;-68
2022/06/10 07:38:42;;;;;;;9.45;3.60;;;;;;;23.24;38.57;100613.19;10508196;28;20051;-67
2022/06/10 07:43:44;;;;;;;5.45;3.10;;;;;;;24.33;36.98;100601.75;10513321;28;20156;-68
2022/06/10 07:48:46;;;;;;;5.13;2.83;;;;;;;25.02;35.91;100605.69;10514488;28;20055;-67
2022/06/10 07:53:49;;;;;;;6.38;2.95;;;;;;;25.49;35.21;100589.75;10513510;28;20080;-67
2022/06/10 07:58:53;;;;;;;6.25;3.20;;;;;;;25.38;35.31;100594.63;10511514;28;20113;-68
2022/06/10 08:03:56;;;;;;;8.10;3.13;;;;;;;25.46;35.45;100582.06;10513284;28;20055;-67
2022/06/10 08:08:58;;;;;;;5.35;2.42;;;;;;;25.94;34.88;100580.22;10514140;28;20343;-67
2022/06/10 08:14:00;;;;;;;5.07;2.80;;;;;;;26.05;34.83;100577.16;10512392;28;20056;-67
2022/06/10 08:19:02;;;;;;;6.78;2.00;;;;;;;26.63;33.65;100572.94;10509718;28;20076;-67
2022/06/10 08:24:06;;;;;;;6.07;2.05;;;;;;;27.40;31.93;100566.38;10512576;28;20127;-69
2022/06/10 08:29:08;;;;;;;3.83;1.70;;;;;;;27.38;32.52;100559.56;10507431;28;20757;-68
2022/06/10 08:34:10;;;;;;;7.45;1.95;;;;;;;27.44;31.84;100556.13;10508953;28;20143;-67
2022/06/10 08:39:11;;;;;;;7.57;2.00;;;;;;;26.71;32.89;100564.00;10510994;28;20083;-67
2022/06/10 08:44:23;;;;;;;6.90;2.10;;;;;;;27.25;31.72;100560.19;10510722;28;20048;-67
2022/06/10 08:49:52;;;;;;;6.47;1.83;;;;;;;27.40;30.13;100560.19;10507651;28;20236;-67
2022/06/10 08:55:11;;;;;;;6.43;2.22;;;;;;;27.31;31.03;100562.13;10510221;28;20147;-68
2022/06/10 09:00:19;;;;;;;7.05;2.25;;;;;;;27.68;31.05;100561.19;10507781;28;20603;-68
2022/06/10 09:05:29;;;;;;;8.10;2.40;;;;;;;27.64;30.07;100553.69;10507621;28;20608;-68
2022/06/10 09:10:49;;;;;;;10.27;2.13;;;;;;;27.67;29.85;100562.22;10510992;28;20499;-68
2022/06/10 09:16:20;;;;;;;5.38;2.08;;;;;;;27.45;29.83;100558.63;10511365;28;20094;-68
2022/06/10 09:21:31;;;;;;;9.25;2.20;;;;;;;26.69;30.26;100566.03;10509131;28;20095;-67
2022/06/10 09:26:48;;;;;;;7.93;2.20;;;;;;;26.16;31.45;100560.69;10506289;28;20080;-67
2022/06/10 09:32:10;;;;;;;6.47;1.92;;;;;;;26.17;30.90;100565.88;10507787;28;20044;-68
2022/06/10 09:37:30;;;;;;;9.10;2.28;;;;;;;26.13;30.90;100561.03;10508448;28;20574;-68
2022/06/10 09:42:40;;;;;;;8.98;1.92;;;;;;;26.52;31.41;100559.09;10505939;28;20047;-68
2022/06/10 09:48:16;;;;;;;6.15;2.00;;;;;;;27.59;28.85;100553.41;10505316;28;20080;-69
2022/06/10 09:54:02;;;;;;;7.47;1.80;;;;;;;26.84;28.61;100547.28;10506198;28;20048;-68
2022/06/10 09:59:07;;;;;;;9.63;2.28;;;;;;;27.00;29.94;100534.56;10484071;28;20040;-68
2022/06/10 10:04:48;;;;;;;6.63;2.30;;;;;;;27.34;29.07;100528.69;10507323;28;20198;-68
2022/06/10 10:09:59;;;;;;;7.75;1.98;;;;;;;27.52;29.60;100526.47;10488888;28;20044;-68
2022/06/10 10:15:16;;;;;;;6.10;1.95;;;;;;;26.87;29.95;100526.31;10506398;28;20055;-68
2022/06/10 10:20:47;;;;;;;6.90;1.95;;;;;;;27.38;28.43;100528.13;10504086;28;20419;-68
2022/06/10 10:25:49;;;;;;;7.68;2.10;;;;;;;27.50;29.92;100521.25;10506573;28;20151;-68
2022/06/10 10:31:19;;;;;;;5.82;1.90;;;;;;;27.34;29.00;100523.34;10508217;28;20466;-68
2022/06/10 10:36:30;;;;;;;5.63;1.98;;;;;;;26.56;29.57;100514.84;10507753;28;20059;-67
2022/06/10 10:41:40;;;;;;;5.65;1.75;;;;;;;26.23;30.31;100522.25;10506894;28;20097;-68
2022/06/10 10:46:58;;;;;;;7.72;2.13;;;;;;;26.10;30.54;100521.19;10507481;28;20591;-68
2022/06/10 10:52:08;;;;;;;9.25;1.80;;;;;;;26.08;30.12;100518.66;10508118;28;20044;-67
2022/06/10 10:57:21;;;;;;;7.15;1.90;;;;;;;25.91;30.48;100519.75;10508319;28;20560;-67
2022/06/10 11:02:34;;;;;;;8.57;2.10;;;;;;;26.09;30.47;100519.50;10507567;28;20048;-68
2022/06/10 11:07:36;;;;;;;6.80;1.90;;;;;;;26.13;31.28;100510.09;10507881;28;20084;-67
2022/06/10 11:12:38;;;;;;;9.10;2.03;;;;;;;26.47;30.39;100518.56;10507223;28;20502;-68
2022/06/10 11:17:49;;;;;;;8.07;2.43;;;;;;;26.94;30.40;100511.13;10510595;28;20048;-68
2022/06/10 11:23:08;;;;;;;5.55;1.73;;;;;;;26.60;29.52;100513.47;10515129;28;20048;-68
2022/06/10 11:28:21;;;;;;;8.52;2.10;;;;;;;26.24;29.14;100513.19;10513536;28;20206;-68
2022/06/10 11:33:38;;;;;;;9.50;2.10;;;;;;;25.97;30.47;100516.41;10512917;28;20238;-68
2022/06/10 11:38:50;;;;;;;5.93;1.73;;;;;;;26.03;30.27;100504.13;10512016;28;20294;-68
2022/06/10 11:44:04;;;;;;;7.10;2.15;;;;;;;26.13;30.62;100507.41;10514708;28;20059;-68
2022/06/10 11:49:31;;;;;;;8.00;1.90;;;;;;;25.90;30.60;100507.34;10511551;28;20117;-68
2022/06/10 11:54:44;;;;;;;9.27;2.00;;;;;;;26.12;30.42;100493.16;10506512;28;20144;-68
2022/06/10 11:59:54;;;;;;;6.65;1.75;;;;;;;26.54;30.23;100487.31;10512937;28;20134;-68
2022/06/10 12:05:05;;;;;;;10.63;2.30;;;;;;;26.56;29.49;100480.81;10510663;28;20045;-67
2022/06/10 12:10:14;;;;;;;7.88;1.98;;;;;;;26.80;29.49;100479.72;10509927;28;20230;-67
2022/06/10 12:15:33;;;;;;;7.60;2.13;;;;;;;26.33;29.25;100471.91;10507871;28;20044;-67
2022/06/10 12:20:47;;;;;;;6.68;1.98;;;;;;;26.83;28.99;100457.91;10511225;28;20488;-67
2022/06/10 12:25:49;;;;;;;7.68;1.80;;;;;;;27.29;28.38;100455.88;10509892;28;20055;-67
2022/06/10 12:31:00;;;;;;;9.60;2.10;;;;;;;27.75;27.82;100453.81;10513248;28;20447;-68
2022/06/10 12:36:06;;;;;;;8.48;2.00;;;;;;;27.40;28.25;100453.53;10510270;28;20086;-68
2022/06/10 12:41:16;;;;;;;7.80;2.13;;;;;;;27.32;28.42;100448.28;10495473;28;20139;-68
2022/06/10 12:46:20;;;;;;;;;;;;;;;26.51;29.79;100444.75;10509450;28;20121;-68
2022/06/10 12:51:35;;;;;;;7.18;1.92;;;;;;;26.84;28.96;100446.13;10521698;28;19930;-67
2022/06/10 12:56:37;;;;;;;7.85;1.92;;;;;;;26.97;29.09;100445.50;10508325;28;20206;-67
2022/06/10 13:01:38;;;;;;;7.00;1.95;;;;;;;26.59;29.42;100463.47;10507840;28;20139;-68
2022/06/10 13:06:43;;;;;;;7.93;1.80;;;;;;;26.29;29.51;100451.81;10507594;28;20052;-67
2022/06/10 13:11:53;;;;;;;6.47;1.83;;;;;;;26.30;29.77;100452.66;10506218;28;20576;-67
2022/06/10 13:16:58;;;;;;;7.60;2.00;;;;;;;26.14;30.38;100452.78;10504089;28;20097;-66
2022/06/10 13:22:18;;;;;;;7.13;2.17;;;;;;;25.96;31.33;100458.44;10498685;28;20170;-67
2022/06/10 13:27:23;;;;;;;6.47;1.75;;;;;;;25.87;31.52;100462.97;10508277;28;20133;-67
2022/06/10 13:32:27;;;;;;;9.15;1.90;;;;;;;25.77;31.66;100458.88;10502658;28;20159;-66
2022/06/10 13:37:37;;;;;;;6.53;1.80;;;;;;;25.80;31.16;100464.72;10507791;28;20069;-66
2022/06/10 13:42:41;;;;;;;7.28;1.98;;;;;;;25.73;31.84;100458.38;10509678;28;20480;-67
2022/06/10 13:48:06;;;;;;;6.25;1.92;;;;;;;25.71;31.83;100457.72;10507473;28;20437;-67
2022/06/10 13:53:21;;;;;;;8.27;2.05;;;;;;;25.80;31.61;100461.19;10508877;28;20040;-66
2022/06/10 13:58:25;;;;;;;5.55;2.03;;;;;;;26.11;31.09;100450.47;10509081;28;20136;-67
2022/06/10 14:03:30;;;;;;;5.75;2.10;;;;;;;26.22;31.15;100450.06;10501961;28;20222;-67
2022/06/10 14:08:35;;;;;;;10.98;2.25;;;;;;;26.41;31.23;100449.53;10502892;28;20504;-68
2022/06/10 14:13:37;;;;;;;6.45;1.75;;;;;;;26.49;30.15;100446.78;10505831;28;20064;-68
2022/06/10 14:18:41;;;;;;;5.32;1.80;;;;;;;26.73;30.46;100440.41;10509042;28;20444;-67
2022/06/10 14:24:17;;;;;;;6.68;1.98;;;;;;;26.93;29.46;100434.31;10504155;28;20147;-67
2022/06/10 14:29:23;;;;;;;7.90;2.00;;;;;;;26.86;29.58;100436.03;10503333;28;20048;-67
2022/06/10 14:34:26;;;;;;;4.68;1.88;;;;;;;27.14;29.61;100439.78;10506007;28;20511;-67
2022/06/10 14:39:30;;;;;;;8.68;1.90;;;;;;;26.99;29.39;100436.25;10506039;28;20054;-66
2022/06/10 14:44:41;;;;;;;7.50;1.92;;;;;;;26.67;29.73;100433.88;10507453;28;20054;-67
2022/06/10 14:49:45;;;;;;;5.13;1.80;;;;;;;26.45;30.12;100429.38;10508693;28;20478;-67
2022/06/10 14:54:47;;;;;;;7.05;2.00;;;;;;;26.46;30.74;100428.38;10511807;28;20194;-67
2022/06/10 14:59:49;;;;;;;6.43;1.85;;;;;;;26.39;30.22;100424.75;10509298;28;20076;-67
2022/06/10 15:06:14;;;;;;;6.57;2.08;;;;;;;26.45;30.09;100435.59;10511798;28;20048;-67
2022/06/10 15:10:19;;;;;;;6.78;2.08;;;;;;;26.28;30.28;100430.56;10509886;28;20048;-68
2022/06/10 15:15:20;;;;;;;5.30;1.77;;;;;;;26.31;30.20;100424.81;10514288;28;20052;-68
2022/06/10 15:20:22;;;;;;;5.97;1.80;;;;;;;26.63;30.19;100420.00;10513292;28;20075;-67
2022/06/10 15:25:38;;;;;;;10.18;2.10;;;;;;;26.81;29.36;100418.84;10514274;28;20048;-67
2022/06/10 15:30:42;;;;;;;6.03;1.70;;;;;;;26.66;29.75;100413.47;10505881;28;20342;-67
2022/06/10 15:41:05;;;;;;;6.75;1.98;;;;;;;26.78;30.13;100403.94;10510311;28;20126;-67
2022/06/10 15:46:25;;;;;;;7.80;2.05;;;;;;;26.59;30.22;100412.50;10506526;28;20048;-67
2022/06/10 15:51:40;;;;;;;5.25;1.80;;;;;;;26.73;30.82;100406.31;10508498;28;20654;-67
2022/06/10 16:02:12;;;;;;;6.43;1.90;;;;;;;26.46;30.22;100394.34;10508301;28;20052;-67
2022/06/10 16:07:14;;;;;;;6.65;2.03;;;;;;;26.41;30.95;100406.63;10506003;28;20413;-67
2022/06/10 16:17:42;;;;;;;5.97;2.00;;;;;;;26.29;31.05;100398.19;10511530;28;20753;-67
2022/06/10 16:22:44;;;;;;;6.85;1.83;;;;;;;26.21;30.63;100392.91;10509992;28;20050;-68
2022/06/10 16:27:47;;;;;;;9.52;1.85;;;;;;;26.19;31.41;100399.44;10502670;28;20146;-67
2022/06/10 16:32:50;;;;;;;7.78;1.90;;;;;;;26.04;30.77;100393.22;10488028;28;20440;-67
2022/06/10 16:37:53;;;;;;;7.65;1.85;;;;;;;26.05;31.27;100395.72;10494447;28;20588;-67
2022/06/10 16:42:55;;;;;;;8.65;2.00;;;;;;;25.97;30.96;100386.91;10496369;28;20055;-67
2022/06/10 16:47:59;;;;;;;7.63;1.90;;;;;;;25.76;31.41;100388.38;10494958;28;20401;-67
2022/06/10 16:53:01;;;;;;;8.05;1.98;;;;;;;25.62;31.57;100397.16;10494244;28;20526;-67
2022/06/10 16:58:03;;;;;;;6.40;1.70;;;;;;;25.48;31.74;100389.91;10497021;28;20516;-68
2022/06/10 17:03:07;;;;;;;6.10;1.90;;;;;;;25.52;32.01;100387.69;10493415;28;20063;-67
2022/06/10 17:08:18;;;;;;;4.53;1.50;;;;;;;25.51;31.98;100394.06;10494086;28;20074;-67
2022/06/10 17:13:25;;;;;;;7.25;2.05;;;;;;;25.39;32.25;100392.78;10488611;28;20052;-67
2022/06/10 17:18:29;;;;;;;6.82;1.88;;;;;;;25.28;32.54;100391.31;10494453;28;20056;-68
2022/06/10 17:23:31;;;;;;;8.88;2.20;;;;;;;25.14;33.96;100393.88;10486424;28;20050;-68
2022/06/10 17:28:34;;;;;;;7.13;1.88;;;;;;;25.04;33.29;100389.56;10494463;28;20066;-67
2022/06/10 17:33:39;;;;;;;7.78;2.25;;;;;;;24.92;34.72;100400.81;10492992;28;20052;-68
2022/06/10 17:38:45;;;;;;;8.80;2.42;;;;;;;24.76;34.57;100400.84;10495112;28;20617;-67
2022/06/10 17:43:47;;;;;;;8.05;2.70;;;;;;;24.56;34.75;100400.38;10491046;28;20052;-67
2022/06/10 17:48:49;;;;;;;8.98;2.20;;;;;;;24.39;35.05;100401.38;10493491;28;20066;-66
2022/06/10 17:53:51;;;;;;;6.88;2.60;;;;;;;24.18;35.40;100409.13;10488364;28;20135;-67
2022/06/10 17:58:53;;;;;;;7.95;2.22;;;;;;;24.14;35.71;100403.25;10491270;28;20479;-66
2022/06/10 18:03:54;;;;;;;8.32;2.60;;;;;;;24.01;36.11;100400.22;10489710;28;20081;-67
2022/06/10 18:08:56;;;;;;;8.98;2.35;;;;;;;23.98;36.65;100403.22;10491386;28;20652;-67
2022/06/10 18:19:23;;;;;;;6.47;2.30;;;;;;;23.97;37.69;100404.22;10482423;28;20696;-67
2022/06/10 18:24:27;;;;;;;6.80;2.55;;;;;;;23.93;37.64;100394.03;10484705;28;20048;-66
2022/06/10 18:29:47;;;;;;;8.27;3.00;;;;;;;23.92;39.20;100389.69;10486110;28;20138;-67
2022/06/10 18:34:51;;;;;;;7.28;2.30;;;;;;;23.99;39.27;100396.03;10484105;28;20048;-67
2022/06/10 18:39:53;;;;;;;8.10;2.20;;;;;;;23.96;39.08;100394.53;10485418;28;20800;-66
2022/06/10 18:44:54;;;;;;;8.98;2.35;;;;;;;24.04;38.71;100401.72;10486013;28;20423;-64
2022/06/10 18:49:56;;;;;;;8.27;1.90;;;;;;;24.06;39.16;100389.84;10491006;28;20300;-64
2022/06/10 18:54:58;;;;;;;6.13;2.00;;;;;;;23.94;39.36;100393.84;10487971;28;20051;-64
2022/06/10 19:00:00;;;;;;;6.70;2.42;;;;;;;23.60;40.53;100400.31;10491408;28;20077;-64
2022/06/10 19:05:04;;;;;;;7.00;2.67;;;;;;;23.33;41.98;100401.41;10492169;28;20523;-64
2022/06/10 19:10:10;;;;;;;7.53;2.10;;;;;;;23.07;42.71;100397.94;10490761;28;20555;-64
2022/06/10 19:15:14;;;;;;;6.22;2.15;;;;;;;22.75;42.75;100403.13;10486201;28;20082;-65
2022/06/10 19:20:28;;;;;;;6.18;1.98;;;;;;;22.37;44.29;100393.69;10485671;28;21174;-65
2022/06/10 19:25:38;;;;;;;5.80;1.92;;;;;;;22.13;44.75;100409.50;10491605;28;20047;-64
2022/06/10 19:30:41;;;;;;;6.07;2.13;;;;;;;21.75;45.21;100405.28;10490281;28;20047;-64
2022/06/10 19:35:47;;;;;;;9.52;2.45;;;;;;;21.49;45.96;100409.66;10495961;28;21428;-64
2022/06/10 19:40:52;;;;;;;6.57;2.00;;;;;;;21.24;46.52;100421.81;10496878;28;20143;-64
2022/06/10 19:45:55;;;;;;;9.43;2.35;;;;;;;20.97;47.09;100433.25;10496391;28;20044;-65
2022/06/10 19:51:00;;;;;;;8.00;2.17;;;;;;;20.71;47.90;100437.56;10499740;28;20051;-65
2022/06/10 19:56:09;;;;;;;9.60;2.60;;;;;;;20.46;49.00;100445.28;10498663;28;20052;-65
2022/06/10 20:01:19;;;;;;;7.03;2.20;;;;;;;20.17;49.56;100443.47;10494673;28;20131;-65
2022/06/10 20:06:21;;;;;;;8.65;2.60;;;;;;;20.00;50.11;100440.69;10494221;28;20256;-65
2022/06/10 20:11:24;;;;;;;5.88;2.30;;;;;;;19.84;50.44;100451.00;10504619;28;20135;-65
2022/06/10 20:16:28;;;;;;;6.38;2.10;;;;;;;19.70;50.71;100454.88;10510035;28;20051;-65
2022/06/10 20:21:31;;;;;;;6.70;2.20;;;;;;;19.55;50.92;100447.41;10510373;28;20105;-65
2022/06/10 20:26:36;;;;;;;8.75;2.38;;;;;;;19.41;51.45;100449.50;10510492;28;20066;-65
2022/06/10 20:31:51;;;;;;;7.45;2.45;;;;;;;19.25;52.32;100449.16;10511138;28;20072;-64
2022/06/10 20:36:53;;;;;;;6.60;2.60;;;;;;;19.02;52.62;100455.63;10511280;28;20058;-64
2022/06/10 20:41:55;;;;;;;9.30;2.50;;;;;;;18.85;52.69;100450.06;10509769;28;20072;-64
2022/06/10 20:47:10;;;;;;;7.90;2.45;;;;;;;18.73;53.43;100446.63;10507658;28;20070;-64
2022/06/10 20:52:25;;;;;;;8.23;2.28;;;;;;;18.56;53.82;100450.72;10510836;28;20140;-64
2022/06/10 20:57:28;;;;;;;6.88;2.20;;;;;;;18.46;53.53;100459.59;10508396;28;20561;-64
2022/06/10 21:02:36;;;;;;;7.32;2.50;;;;;;;18.31;54.43;100455.56;10506858;28;20492;-64
2022/06/10 21:07:49;;;;;;;11.25;2.40;;;;;;;18.22;54.54;100462.47;10510548;28;20090;-65
2022/06/10 21:12:53;;;;;;;10.07;2.28;;;;;;;18.19;54.30;100461.84;10509300;28;20339;-64
2022/06/10 21:18:30;;;;;;;6.47;2.85;;;;;;;17.99;54.96;100466.16;10507751;28;20052;-64
2022/06/10 21:23:31;;;;;;;6.95;2.40;;;;;;;17.86;55.29;100476.03;10509122;28;20052;-64
2022/06/10 21:28:34;;;;;;;6.70;2.47;;;;;;;17.77;55.63;100480.28;10506930;28;20411;-64
2022/06/10 21:33:39;;;;;;;6.32;2.50;;;;;;;17.62;55.98;100472.75;10507218;28;20127;-65
2022/06/10 21:38:42;;;;;;;6.00;2.60;;;;;;;17.56;56.17;100482.03;10506137;28;20048;-64
2022/06/10 21:49:05;;;;;;;10.02;2.90;;;;;;;17.21;56.67;100481.28;10507700;28;20059;-65
2022/06/10 21:54:07;;;;;;;8.07;2.83;;;;;;;17.12;57.19;100487.28;10507556;28;20102;-64
2022/06/10 21:59:15;;;;;;;9.98;3.40;;;;;;;16.99;57.78;100479.50;10507446;28;20040;-63
2022/06/10 22:04:29;;;;;;;8.82;3.42;;;;;;;16.87;57.59;100487.50;10508174;28;20052;-64
2022/06/10 22:09:36;;;;;;;9.73;3.70;;;;;;;16.82;57.63;100487.00;10507313;28;20052;-64
2022/06/10 22:14:38;;;;;;;8.68;3.53;;;;;;;16.75;57.91;100491.09;10507591;28;20512;-64
2022/06/10 22:19:46;;;;;;;10.38;3.58;;;;;;;16.65;57.49;100495.41;10506201;28;20059;-63
2022/06/10 22:24:51;;;;;;;7.97;2.92;;;;;;;16.49;57.76;100498.34;10506501;28;20048;-63
2022/06/10 22:29:55;;;;;;;8.48;3.63;;;;;;;16.42;58.45;100493.59;10506750;28;20084;-64
2022/06/10 22:34:58;;;;;;;7.75;3.55;;;;;;;16.39;58.18;100493.81;10506707;28;20048;-64
2022/06/10 22:40:00;;;;;;;6.18;3.22;;;;;;;15.93;59.17;100491.97;10506091;28;20054;-64
2022/06/10 22:45:02;;;;;;;8.63;3.00;;;;;;;16.03;59.11;100492.97;10507034;28;20050;-63
2022/06/10 22:50:11;;;;;;;7.68;3.10;;;;;;;16.04;58.99;100499.91;10506759;28;20526;-64
2022/06/10 22:55:18;;;;;;;7.77;3.17;;;;;;;16.02;58.92;100501.81;10505878;28;20059;-64
2022/06/10 23:00:38;;;;;;;9.65;3.15;;;;;;;15.99;59.25;100499.44;10505987;28;20052;-64
2022/06/10 23:11:01;;;;;;;7.90;2.70;;;;;;;15.78;59.11;100497.50;10511716;28;20123;-64
2022/06/10 23:16:05;;;;;;;7.00;2.72;;;;;;;15.74;60.08;100504.78;10513634;28;20059;-64
2022/06/10 23:21:16;;;;;;;9.93;3.00;;;;;;;15.67;60.70;100505.34;10514043;28;20571;-63
2022/06/10 23:26:23;;;;;;;8.00;2.80;;;;;;;15.71;60.18;100502.38;10514451;28;20622;-64
2022/06/10 23:31:38;;;;;;;6.43;2.80;;;;;;;15.66;59.56;100501.00;10513915;28;20055;-64
2022/06/10 23:36:42;;;;;;;9.80;3.20;;;;;;;15.61;59.17;100511.06;10509350;28;20573;-64
2022/06/10 23:42:02;;;;;;;9.68;3.10;;;;;;;15.50;59.35;100509.19;10513907;28;20542;-63
2022/06/10 23:52:29;;;;;;;9.10;2.80;;;;;;;15.35;59.57;100512.84;10513022;28;20048;-64
2022/06/10 23:57:32;;;;;;;7.68;2.90;;;;;;;15.29;59.79;100515.91;10511845;28;20134;-64
